createdAt,value
2023-05-22T00:00:30.854Z,35.27
2023-05-22T00:03:05.986Z,38.30
2023-05-22T00:05:40.862Z,42.37
2023-05-22T00:08:16.088Z,41.03
2023-05-22T00:10:53.448Z,39.90
2023-05-22T00:13:28.686Z,32.23
2023-05-22T00:16:04.052Z,38.83
2023-05-22T00:18:37.069Z,36.93
2023-05-22T00:21:10.830Z,36.07
2023-05-22T00:23:45.422Z,36.77
2023-05-22T00:26:24.667Z,37.67
2023-05-22T00:28:58.124Z,42.83
2023-05-22T00:31:32.849Z,38.97
2023-05-22T00:34:08.778Z,41.00
2023-05-22T00:36:45.196Z,36.60
2023-05-22T00:39:19.843Z,41.63
2023-05-22T00:41:57.083Z,39.70
2023-05-22T00:44:31.683Z,37.93
2023-05-22T00:47:06.096Z,36.87
2023-05-22T00:49:43.789Z,33.10
2023-05-22T00:52:21.210Z,42.17
2023-05-22T00:54:59.363Z,45.43
2023-05-22T00:57:37.351Z,35.30
2023-05-22T01:00:13.709Z,39.13
2023-05-22T01:02:49.664Z,35.47
2023-05-22T01:05:27.143Z,30.13
2023-05-22T01:08:03.866Z,39.27
2023-05-22T01:10:41.985Z,46.03
2023-05-22T01:13:29.167Z,37.70
2023-05-22T01:16:17.116Z,37.80
2023-05-22T01:18:59.764Z,37.43
2023-05-22T01:21:43.557Z,35.87
2023-05-22T01:24:55.042Z,38.07
2023-05-22T01:27:49.300Z,42.13
2023-05-22T01:30:53.619Z,37.33
2023-05-22T01:33:50.737Z,37.07
2023-05-22T01:36:27.423Z,41.40
2023-05-22T01:39:06.029Z,38.13
2023-05-22T01:41:40.674Z,37.27
2023-05-22T01:44:14.102Z,37.30
2023-05-22T01:46:50.008Z,44.03
2023-05-22T01:49:31.677Z,38.03
2023-05-22T01:52:13.688Z,38.67
2023-05-22T01:55:00.446Z,44.20
2023-05-22T01:57:40.114Z,40.20
2023-05-22T02:00:18.335Z,37.00
2023-05-22T02:02:58.297Z,41.43
2023-05-22T02:05:39.102Z,40.00
2023-05-22T02:08:16.431Z,41.03
2023-05-22T02:10:56.355Z,36.07
2023-05-22T02:13:35.233Z,43.93
2023-05-22T02:16:12.126Z,46.53
2023-05-22T02:18:56.721Z,36.70
2023-05-22T02:21:40.339Z,44.63
2023-05-22T02:24:15.743Z,33.93
2023-05-22T02:26:52.078Z,36.50
2023-05-22T02:29:30.523Z,44.87
2023-05-22T02:32:05.446Z,47.43
2023-05-22T02:34:39.055Z,41.93
2023-05-22T02:37:14.863Z,41.47
2023-05-22T02:39:51.983Z,40.03
2023-05-22T02:42:28.445Z,42.63
2023-05-22T02:45:02.991Z,39.50
2023-05-22T02:47:37.088Z,45.77
2023-05-22T02:50:15.757Z,48.37
2023-05-22T02:52:53.673Z,50.83
2023-05-22T02:55:45.771Z,41.07
2023-05-22T02:58:26.667Z,40.00
2023-05-22T03:01:04.674Z,40.43
2023-05-22T03:03:38.647Z,43.30
2023-05-22T03:06:19.116Z,46.03
2023-05-22T03:08:55.636Z,42.87
2023-05-22T03:11:30.141Z,40.30
2023-05-22T03:14:04.662Z,49.33
2023-05-22T03:16:43.646Z,46.43
2023-05-22T03:19:21.092Z,45.17
2023-05-22T03:21:57.271Z,53.30
2023-05-22T03:24:37.897Z,51.60
2023-05-22T03:27:18.897Z,53.53
2023-05-22T03:29:57.497Z,45.83
2023-05-22T03:32:33.074Z,49.10
2023-05-22T03:35:11.293Z,54.83
2023-05-22T03:37:45.834Z,47.97
2023-05-22T03:40:26.981Z,58.53
2023-05-22T03:43:02.965Z,52.03
2023-05-22T03:45:37.702Z,51.17
2023-05-22T03:48:14.924Z,42.70
2023-05-22T03:50:51.286Z,46.10
2023-05-22T03:53:34.824Z,51.00
2023-05-22T03:56:11.407Z,50.60
2023-05-22T03:58:47.642Z,42.80
2023-05-22T04:01:22.416Z,43.20
2023-05-22T04:03:59.220Z,48.20
2023-05-22T04:06:35.438Z,56.90
2023-05-22T04:09:17.107Z,50.90
2023-05-22T04:11:54.476Z,51.93
2023-05-22T04:14:35.730Z,49.67
2023-05-22T04:17:10.852Z,51.23
2023-05-22T04:19:49.077Z,56.93
2023-05-22T04:22:29.967Z,58.90
2023-05-22T04:25:09.099Z,44.13
2023-05-22T04:27:51.175Z,47.33
2023-05-22T04:30:31.390Z,65.47
2023-05-22T04:33:07.974Z,51.27
2023-05-22T04:35:46.220Z,43.80
2023-05-22T04:38:20.836Z,62.60
2023-05-22T04:40:56.361Z,59.77
2023-05-22T04:43:36.851Z,49.83
2023-05-22T04:46:17.828Z,44.53
2023-05-22T04:48:54.519Z,41.30
2023-05-22T04:51:36.808Z,45.40
2023-05-22T04:54:15.520Z,56.10
2023-05-22T04:56:51.394Z,52.20
2023-05-22T04:59:27.802Z,45.37
2023-05-22T05:02:04.577Z,38.50
2023-05-22T05:04:46.883Z,37.70
2023-05-22T05:07:25.924Z,46.93
2023-05-22T05:10:01.468Z,45.53
2023-05-22T05:12:36.710Z,43.17
2023-05-22T05:15:20.946Z,48.27
2023-05-22T05:17:58.540Z,51.90
2023-05-22T05:20:39.038Z,41.40
2023-05-22T05:23:17.942Z,37.40
2023-05-22T05:25:54.026Z,43.47
2023-05-22T05:28:31.530Z,48.97
2023-05-22T05:31:13.995Z,58.73
2023-05-22T05:34:14.985Z,44.30
2023-05-22T05:37:11.962Z,49.33
2023-05-22T05:39:52.411Z,41.83
2023-05-22T05:42:28.863Z,49.07
2023-05-22T05:45:12.888Z,47.70
2023-05-22T05:47:59.928Z,47.00
2023-05-22T05:50:33.962Z,43.87
2023-05-22T05:53:11.723Z,49.90
2023-05-22T05:55:58.127Z,45.57
2023-05-22T05:58:43.170Z,46.50
2023-05-22T06:01:46.071Z,44.43
2023-05-22T06:04:36.265Z,50.30
2023-05-22T06:07:19.631Z,53.17
2023-05-22T06:09:57.636Z,44.53
2023-05-22T06:12:44.957Z,51.50
2023-05-22T06:15:28.396Z,51.73
2023-05-22T06:18:12.095Z,43.30
2023-05-22T06:20:51.715Z,42.50
2023-05-22T06:23:28.569Z,47.73
2023-05-22T06:26:06.637Z,49.83
2023-05-22T06:28:46.392Z,56.50
2023-05-22T06:31:25.720Z,51.27
2023-05-22T06:34:14.001Z,60.67
2023-05-22T06:36:53.605Z,62.93
2023-05-22T06:39:34.400Z,58.10
2023-05-22T06:42:25.803Z,55.90
2023-05-22T06:45:41.949Z,57.90
2023-05-22T06:48:38.350Z,55.80
2023-05-22T06:51:32.240Z,56.00
2023-05-22T06:54:21.526Z,50.97
2023-05-22T06:57:01.437Z,55.70
2023-05-22T06:59:41.680Z,51.20
2023-05-22T07:02:45.182Z,55.60
2023-05-22T07:05:37.045Z,57.73
2023-05-22T07:08:14.168Z,57.23
2023-05-22T07:10:53.191Z,55.50
2023-05-22T07:13:33.986Z,54.93
2023-05-22T07:16:11.632Z,53.23
2023-05-22T07:18:47.716Z,54.13
2023-05-22T07:21:21.828Z,59.00
2023-05-22T07:23:57.711Z,51.90
2023-05-22T07:26:38.069Z,53.17
2023-05-22T07:29:23.497Z,54.67
2023-05-22T07:32:03.301Z,57.73
2023-05-22T07:34:40.101Z,60.47
2023-05-22T07:37:23.750Z,65.57
2023-05-22T07:40:00.815Z,59.27
2023-05-22T07:42:43.951Z,54.33
2023-05-22T07:45:23.415Z,58.20
2023-05-22T07:48:00.837Z,64.80
2023-05-22T07:50:48.135Z,59.33
2023-05-22T07:53:28.203Z,64.00
2023-05-22T07:56:06.468Z,63.13
2023-05-22T07:58:50.006Z,61.47
2023-05-22T08:01:26.751Z,70.90
2023-05-22T08:04:04.294Z,65.07
2023-05-22T08:06:41.854Z,63.40
2023-05-22T08:09:16.720Z,58.07
2023-05-22T08:12:02.028Z,63.67
2023-05-22T08:14:38.877Z,75.17
2023-05-22T08:17:14.894Z,68.17
2023-05-22T08:19:51.391Z,69.60
2023-05-22T08:22:28.422Z,66.77
2023-05-22T08:25:02.945Z,66.97
2023-05-22T08:27:49.407Z,63.63
2023-05-22T08:30:27.398Z,69.77
2023-05-22T08:33:05.335Z,62.83
2023-05-22T08:35:42.358Z,65.07
2023-05-22T08:38:20.600Z,68.53
2023-05-22T08:41:00.749Z,64.17
2023-05-22T08:43:38.067Z,61.40
2023-05-22T08:46:18.169Z,64.23
2023-05-22T08:48:53.673Z,68.33
2023-05-22T08:51:38.202Z,63.70
2023-05-22T08:54:14.432Z,69.63
2023-05-22T08:56:56.631Z,65.03
2023-05-22T08:59:34.434Z,70.13
2023-05-22T09:02:13.902Z,63.17
2023-05-22T09:04:50.860Z,70.67
2023-05-22T09:07:29.391Z,52.10
2023-05-22T09:10:09.415Z,56.67
2023-05-22T09:12:43.884Z,56.87
2023-05-22T09:15:22.183Z,59.30
2023-05-22T09:18:05.740Z,58.40
2023-05-22T09:20:47.562Z,54.90
2023-05-22T09:23:23.665Z,47.87
2023-05-22T09:26:06.470Z,51.27
2023-05-22T09:28:44.214Z,43.70
2023-05-22T09:31:21.628Z,51.77
2023-05-22T09:34:01.231Z,47.90
2023-05-22T09:36:39.774Z,48.23
2023-05-22T09:39:13.714Z,52.53
2023-05-22T09:41:51.722Z,49.83
2023-05-22T09:44:30.744Z,48.50
2023-05-22T09:47:08.471Z,45.90
2023-05-22T09:49:52.560Z,54.37
2023-05-22T09:52:37.921Z,53.57
2023-05-22T09:55:13.561Z,49.57
2023-05-22T09:57:51.472Z,47.80
2023-05-22T10:00:25.923Z,54.13
2023-05-22T10:03:06.668Z,52.77
2023-05-22T10:05:56.236Z,52.87
2023-05-22T10:08:33.250Z,54.67
2023-05-22T10:11:10.655Z,44.43
2023-05-22T10:13:50.000Z,54.23
2023-05-22T10:16:27.811Z,47.40
2023-05-22T10:19:07.585Z,45.97
2023-05-22T10:21:52.336Z,51.37
2023-05-22T10:24:34.922Z,53.70
2023-05-22T10:27:10.286Z,59.90
2023-05-22T10:29:54.856Z,58.87
2023-05-22T10:32:39.071Z,54.20
2023-05-22T10:35:26.723Z,52.27
2023-05-22T10:38:22.950Z,51.57
2023-05-22T10:40:59.313Z,54.63
2023-05-22T10:43:42.692Z,44.90
2023-05-22T10:46:23.443Z,54.00
2023-05-22T10:48:59.438Z,55.17
2023-05-22T10:51:36.073Z,50.10
2023-05-22T10:54:14.171Z,53.07
2023-05-22T10:56:48.939Z,57.17
2023-05-22T10:59:42.049Z,57.70
2023-05-22T11:02:28.218Z,47.63
2023-05-22T11:05:38.489Z,51.83
2023-05-22T11:08:43.109Z,50.33
2023-05-22T11:11:21.608Z,51.03
2023-05-22T11:14:09.645Z,49.03
2023-05-22T11:16:48.159Z,57.17
2023-05-22T11:19:30.168Z,46.20
2023-05-22T11:22:11.582Z,50.37
2023-05-22T11:24:48.814Z,51.60
2023-05-22T11:27:38.233Z,50.37
2023-05-22T11:30:28.453Z,45.37
2023-05-22T11:33:06.072Z,49.07
2023-05-22T11:35:43.845Z,52.87
2023-05-22T11:38:38.622Z,50.63
2023-05-22T11:41:21.671Z,47.53
2023-05-22T11:44:05.699Z,50.67
2023-05-22T11:46:46.852Z,46.33
2023-05-22T11:49:27.477Z,49.70
2023-05-22T11:52:04.990Z,44.27
2023-05-22T11:54:43.678Z,45.20
2023-05-22T11:57:20.304Z,50.90
2023-05-22T11:59:57.420Z,50.33
2023-05-22T12:02:31.331Z,53.77
2023-05-22T12:05:09.126Z,51.93
2023-05-22T12:07:48.290Z,52.67
2023-05-22T12:10:26.901Z,55.20
2023-05-22T12:13:03.725Z,48.80
2023-05-22T12:15:46.571Z,54.33
2023-05-22T12:18:28.030Z,51.10
2023-05-22T12:21:09.200Z,51.23
2023-05-22T12:23:54.137Z,54.67
2023-05-22T12:26:30.577Z,48.10
2023-05-22T12:29:05.261Z,55.23
2023-05-22T12:31:50.426Z,54.57
2023-05-22T12:34:27.779Z,51.63
2023-05-22T12:37:03.114Z,63.03
2023-05-22T12:39:42.163Z,52.07
2023-05-22T12:42:20.044Z,49.30
2023-05-22T12:44:58.723Z,51.40
2023-05-22T12:47:41.162Z,54.10
2023-05-22T12:50:21.523Z,55.60
2023-05-22T12:53:00.849Z,62.87
2023-05-22T12:55:37.322Z,53.93
2023-05-22T12:58:23.807Z,56.23
2023-05-22T13:01:11.104Z,61.17
2023-05-22T13:03:53.563Z,61.40
2023-05-22T13:06:35.303Z,59.50
2023-05-22T13:09:19.390Z,66.63
2023-05-22T13:11:59.662Z,65.40
2023-05-22T13:14:36.814Z,84.07
2023-05-22T13:17:19.309Z,64.93
2023-05-22T13:20:00.559Z,73.47
2023-05-22T13:22:38.114Z,68.57
2023-05-22T13:25:15.014Z,73.77
2023-05-22T13:27:53.187Z,75.93
2023-05-22T13:30:31.638Z,72.57
2023-05-22T13:33:06.761Z,79.30
2023-05-22T13:35:56.136Z,73.07
2023-05-22T13:38:38.300Z,72.70
2023-05-22T13:41:12.955Z,79.63
2023-05-22T13:44:01.192Z,77.13
2023-05-22T13:46:41.336Z,76.50
2023-05-22T13:49:23.079Z,75.80
2023-05-22T13:52:07.598Z,78.60
2023-05-22T13:54:47.569Z,76.67
2023-05-22T13:57:26.368Z,81.50
2023-05-22T14:00:11.281Z,79.57
2023-05-22T14:02:48.280Z,80.17
2023-05-22T14:05:25.489Z,84.23
2023-05-22T14:08:26.896Z,78.83
2023-05-22T14:11:03.597Z,74.70
2023-05-22T14:13:40.357Z,76.73
2023-05-22T14:16:17.704Z,75.00
2023-05-22T14:18:58.162Z,73.83
2023-05-22T14:21:38.069Z,70.30
2023-05-22T14:24:26.544Z,69.50
2023-05-22T14:27:14.866Z,77.00
2023-05-22T14:29:53.799Z,74.67
2023-05-22T14:32:41.619Z,79.20
2023-05-22T14:35:28.233Z,66.07
2023-05-22T14:38:10.553Z,83.00
2023-05-22T14:41:01.101Z,78.97
2023-05-22T14:43:50.106Z,79.30
2023-05-22T14:46:31.055Z,75.67
2023-05-22T14:49:12.477Z,70.83
2023-05-22T14:51:54.423Z,72.53
2023-05-22T14:54:32.243Z,74.00
2023-05-22T14:57:30.075Z,71.80
2023-05-22T15:00:06.292Z,73.93
2023-05-22T15:02:46.795Z,74.30
2023-05-22T15:05:31.555Z,63.30
2023-05-22T15:08:17.144Z,66.10
2023-05-22T15:11:03.589Z,75.53
2023-05-22T15:13:45.264Z,73.30
2023-05-22T15:16:26.294Z,64.50
2023-05-22T15:19:06.611Z,71.57
2023-05-22T15:21:43.408Z,68.67
2023-05-22T15:24:19.933Z,79.40
2023-05-22T15:27:01.074Z,73.43
2023-05-22T15:29:45.991Z,61.33
2023-05-22T15:32:23.875Z,69.97
2023-05-22T15:35:01.823Z,74.97
2023-05-22T15:37:49.529Z,66.70
2023-05-22T15:40:26.249Z,77.47
2023-05-22T15:43:08.667Z,75.90
2023-05-22T15:45:53.459Z,63.83
2023-05-22T15:48:34.363Z,66.73
2023-05-22T15:51:13.724Z,70.90
2023-05-22T15:53:52.645Z,71.87
2023-05-22T15:56:27.653Z,64.90
2023-05-22T15:59:07.107Z,73.63
2023-05-22T16:01:45.213Z,62.40
2023-05-22T16:04:25.233Z,65.37
2023-05-22T16:07:02.532Z,64.83
2023-05-22T16:09:42.318Z,70.37
2023-05-22T16:12:16.265Z,68.53
2023-05-22T16:14:51.923Z,68.03
2023-05-22T16:17:35.080Z,69.03
2023-05-22T16:20:16.242Z,63.87
2023-05-22T16:22:53.597Z,68.93
2023-05-22T16:25:28.881Z,65.53
2023-05-22T16:28:07.396Z,69.67
2023-05-22T16:30:45.020Z,70.40
2023-05-22T16:33:33.034Z,69.90
2023-05-22T16:36:08.682Z,63.17
2023-05-22T16:38:43.428Z,68.90
2023-05-22T16:41:24.594Z,67.67
2023-05-22T16:44:00.218Z,67.33
2023-05-22T16:46:35.463Z,70.60
2023-05-22T16:49:13.419Z,66.67
2023-05-22T16:51:50.055Z,67.23
2023-05-22T16:54:27.108Z,69.30
2023-05-22T16:57:01.803Z,71.33
2023-05-22T16:59:45.364Z,67.87
2023-05-22T17:02:23.609Z,67.03
2023-05-22T17:05:04.290Z,67.93
2023-05-22T17:07:42.878Z,66.77
2023-05-22T17:10:17.125Z,73.03
2023-05-22T17:13:00.012Z,68.50
2023-05-22T17:15:34.940Z,63.63
2023-05-22T17:18:12.211Z,74.37
2023-05-22T17:20:51.534Z,73.80
2023-05-22T17:23:27.814Z,64.80
2023-05-22T17:26:01.474Z,72.70
2023-05-22T17:28:35.978Z,72.40
2023-05-22T17:31:12.012Z,74.87
2023-05-22T17:33:46.931Z,73.00
2023-05-22T17:36:24.991Z,74.83
2023-05-22T17:39:01.438Z,67.70
2023-05-22T17:41:36.164Z,75.50
2023-05-22T17:44:10.184Z,72.57
2023-05-22T17:46:44.456Z,68.73
2023-05-22T17:49:21.204Z,70.13
2023-05-22T17:51:57.773Z,66.17
2023-05-22T17:54:37.778Z,75.33
2023-05-22T17:57:11.870Z,62.60
2023-05-22T17:59:48.223Z,71.23
2023-05-22T18:02:24.486Z,62.90
2023-05-22T18:04:57.738Z,66.83
2023-05-22T18:07:33.387Z,64.73
2023-05-22T18:10:08.300Z,63.00
2023-05-22T18:12:44.371Z,59.10
2023-05-22T18:15:18.501Z,57.93
2023-05-22T18:17:52.718Z,53.83
2023-05-22T18:20:27.620Z,51.80
2023-05-22T18:23:03.847Z,60.50
2023-05-22T18:25:37.608Z,52.67
2023-05-22T18:28:13.006Z,56.30
2023-05-22T18:30:47.194Z,56.37
2023-05-22T18:33:21.446Z,53.77
2023-05-22T18:35:55.375Z,48.50
2023-05-22T18:38:31.511Z,59.10
2023-05-22T18:41:04.850Z,50.53
2023-05-22T18:43:38.645Z,49.40
2023-05-22T18:46:13.457Z,49.73
2023-05-22T18:48:47.014Z,46.97
2023-05-22T18:51:21.749Z,42.07
2023-05-22T18:54:01.260Z,53.83
2023-05-22T18:56:36.995Z,48.57
2023-05-22T18:59:10.965Z,45.00
2023-05-22T19:01:55.840Z,47.37
2023-05-22T19:04:31.714Z,47.03
2023-05-22T19:07:05.050Z,41.70
2023-05-22T19:09:43.592Z,47.73
2023-05-22T19:12:18.006Z,47.37
2023-05-22T19:14:52.288Z,47.63
2023-05-22T19:17:25.480Z,50.93
2023-05-22T19:19:59.472Z,46.53
2023-05-22T19:22:33.504Z,45.73
2023-05-22T19:25:15.640Z,46.80
2023-05-22T19:27:50.564Z,50.70
2023-05-22T19:30:26.247Z,43.50
2023-05-22T19:33:02.418Z,54.93
2023-05-22T19:35:37.048Z,51.93
2023-05-22T19:38:12.223Z,52.33
2023-05-22T19:40:49.380Z,44.40
2023-05-22T19:43:26.042Z,50.10
2023-05-22T19:45:59.616Z,44.03
2023-05-22T19:48:35.299Z,41.20
2023-05-22T19:51:10.669Z,43.57
2023-05-22T19:53:46.180Z,46.00
2023-05-22T19:56:21.517Z,44.00
2023-05-22T19:58:54.498Z,49.40
2023-05-22T20:01:28.749Z,42.67
2023-05-22T20:04:03.760Z,41.33
2023-05-22T20:06:37.079Z,53.80
2023-05-22T20:09:11.168Z,45.50
2023-05-22T20:11:48.061Z,48.83
2023-05-22T20:14:23.976Z,45.03
2023-05-22T20:17:00.378Z,41.93
2023-05-22T20:19:36.506Z,49.33
2023-05-22T20:22:11.265Z,43.97
2023-05-22T20:24:46.279Z,41.67
2023-05-22T20:27:22.320Z,49.13
2023-05-22T20:29:56.984Z,46.33
2023-05-22T20:32:33.306Z,48.17
2023-05-22T20:35:07.305Z,47.73
2023-05-22T20:37:43.558Z,43.20
2023-05-22T20:40:18.537Z,40.03
2023-05-22T20:42:54.728Z,39.50
2023-05-22T20:45:27.658Z,37.20
2023-05-22T20:48:01.603Z,43.70
2023-05-22T20:50:39.077Z,42.37
2023-05-22T20:53:14.429Z,42.37
2023-05-22T20:55:49.009Z,42.20
2023-05-22T20:58:31.487Z,44.67
2023-05-22T21:01:06.431Z,42.43
2023-05-22T21:03:41.434Z,39.73
2023-05-22T21:06:16.006Z,45.17
2023-05-22T21:08:51.930Z,47.10
2023-05-22T21:11:27.318Z,39.70
2023-05-22T21:14:08.144Z,41.47
2023-05-22T21:16:43.769Z,44.17
2023-05-22T21:19:18.968Z,48.20
2023-05-22T21:21:53.034Z,42.27
2023-05-22T21:24:26.500Z,44.00
2023-05-22T21:27:00.725Z,48.63
2023-05-22T21:29:36.515Z,39.50
2023-05-22T21:32:10.908Z,47.40
2023-05-22T21:34:46.565Z,45.87
2023-05-22T21:37:21.239Z,45.23
2023-05-22T21:39:56.793Z,48.23
2023-05-22T21:42:41.960Z,40.17
2023-05-22T21:45:20.998Z,47.83
2023-05-22T21:47:55.548Z,43.43
2023-05-22T21:50:30.621Z,41.43
2023-05-22T21:53:05.583Z,39.40
2023-05-22T21:55:40.602Z,40.40
2023-05-22T21:58:15.601Z,37.87
2023-05-22T22:00:50.703Z,39.73
2023-05-22T22:03:25.328Z,40.90
2023-05-22T22:05:59.776Z,35.80
2023-05-22T22:08:35.239Z,40.30
2023-05-22T22:11:09.326Z,45.33
2023-05-22T22:13:43.586Z,39.20
2023-05-22T22:16:23.307Z,38.00
2023-05-22T22:18:59.579Z,40.57
2023-05-22T22:21:35.275Z,47.40
2023-05-22T22:24:09.315Z,33.60
2023-05-22T22:26:42.687Z,43.17
2023-05-22T22:29:15.770Z,34.80
2023-05-22T22:31:52.564Z,40.03
2023-05-22T22:34:26.540Z,38.87
2023-05-22T22:37:00.512Z,35.73
2023-05-22T22:39:35.090Z,40.43
2023-05-22T22:42:09.686Z,47.40
2023-05-22T22:44:50.169Z,37.10
2023-05-22T22:47:27.088Z,42.10
2023-05-22T22:50:01.711Z,46.77
2023-05-22T22:52:39.209Z,50.67
2023-05-22T22:55:14.605Z,62.97
2023-05-22T22:57:52.766Z,64.43
2023-05-22T23:00:28.619Z,65.13
2023-05-22T23:03:05.958Z,61.03
2023-05-22T23:05:40.400Z,66.33
2023-05-22T23:08:14.334Z,69.00
2023-05-22T23:10:48.074Z,68.67
2023-05-22T23:13:23.455Z,69.37
2023-05-22T23:16:09.854Z,67.47
2023-05-22T23:18:53.635Z,71.17
2023-05-22T23:21:36.214Z,68.50
2023-05-22T23:24:14.654Z,64.83
2023-05-22T23:26:51.224Z,69.63
2023-05-22T23:29:25.391Z,68.10
2023-05-22T23:31:58.858Z,65.50
2023-05-22T23:34:41.392Z,71.20
2023-05-22T23:37:23.146Z,76.00
2023-05-22T23:40:11.016Z,76.00
2023-05-22T23:43:03.226Z,74.70
2023-05-22T23:45:55.282Z,78.20
2023-05-22T23:48:53.439Z,72.43
2023-05-22T23:51:33.832Z,82.93
2023-05-22T23:54:14.081Z,73.03
2023-05-22T23:56:49.252Z,72.17
2023-05-22T23:59:23.578Z,77.83
